createdAt,value
2023-04-20T00:01:47.747Z,94.00
2023-04-20T00:04:15.622Z,94.40
2023-04-20T00:06:44.050Z,94.80
2023-04-20T00:09:12.189Z,94.80
2023-04-20T00:11:39.588Z,95.00
2023-04-20T00:14:07.573Z,94.70
2023-04-20T00:16:34.344Z,94.40
2023-04-20T00:19:01.510Z,94.30
2023-04-20T00:21:28.789Z,94.50
2023-04-20T00:23:55.940Z,94.80
2023-04-20T00:26:23.061Z,95.20
2023-04-20T00:28:53.378Z,95.30
2023-04-20T00:31:20.793Z,95.70
2023-04-20T00:33:48.386Z,95.00
2023-04-20T00:36:15.307Z,95.20
2023-04-20T00:38:42.262Z,95.40
2023-04-20T00:41:09.076Z,95.00
2023-04-20T00:43:36.040Z,95.60
2023-04-20T00:46:05.714Z,95.70
2023-04-20T00:48:32.465Z,96.20
2023-04-20T00:50:59.491Z,95.90
2023-04-20T00:53:26.683Z,96.40
2023-04-20T00:55:53.434Z,95.70
2023-04-20T00:58:20.511Z,95.20
2023-04-20T01:00:47.513Z,95.00
2023-04-20T01:03:14.677Z,95.30
2023-04-20T01:05:41.576Z,95.40
2023-04-20T01:08:08.869Z,95.10
2023-04-20T01:10:36.153Z,95.10
2023-04-20T01:13:03.747Z,95.00
2023-04-20T01:15:30.831Z,95.00
2023-04-20T01:17:58.060Z,94.90
2023-04-20T01:20:25.303Z,95.10
2023-04-20T01:22:56.505Z,95.00
2023-04-20T01:25:23.379Z,94.90
2023-04-20T01:27:50.694Z,95.30
2023-04-20T01:30:17.910Z,95.20
2023-04-20T01:32:44.810Z,95.20
2023-04-20T01:35:12.258Z,95.20
2023-04-20T01:37:39.728Z,95.20
2023-04-20T01:40:10.561Z,95.40
2023-04-20T01:42:37.406Z,95.40
2023-04-20T01:45:07.961Z,95.30
2023-04-20T01:47:35.960Z,95.20
2023-04-20T01:50:03.130Z,95.40
2023-04-20T01:52:30.022Z,96.00
2023-04-20T01:54:56.695Z,96.00
2023-04-20T01:57:25.139Z,96.40
2023-04-20T01:59:51.935Z,97.20
2023-04-20T02:02:19.497Z,97.70
2023-04-20T02:04:46.868Z,98.10
2023-04-20T02:07:13.583Z,98.20
2023-04-20T02:09:40.380Z,98.10
2023-04-20T02:12:07.626Z,97.40
2023-04-20T02:14:34.766Z,98.10
2023-04-20T02:17:02.492Z,98.10
2023-04-20T02:19:29.783Z,98.10
2023-04-20T02:21:57.153Z,98.80
2023-04-20T02:24:24.491Z,98.30
2023-04-20T02:26:52.328Z,98.70
2023-04-20T02:29:19.372Z,98.20
2023-04-20T02:31:47.449Z,97.90
2023-04-20T02:34:16.316Z,97.70
2023-04-20T02:36:43.544Z,98.50
2023-04-20T02:39:13.184Z,98.40
2023-04-20T02:41:40.153Z,99.00
2023-04-20T02:44:07.092Z,99.00
2023-04-20T02:46:36.961Z,99.30
2023-04-20T02:49:04.380Z,99.40
2023-04-20T02:51:35.989Z,99.90
2023-04-20T02:54:03.670Z,99.90
2023-04-20T02:56:31.651Z,99.90
2023-04-20T02:59:04.038Z,99.90
2023-04-20T03:01:51.235Z,99.90
2023-04-20T03:04:22.224Z,99.90
2023-04-20T03:06:58.766Z,99.90
2023-04-20T03:09:29.696Z,99.90
2023-04-20T03:12:06.907Z,99.90
2023-04-20T03:14:52.734Z,99.90
2023-04-20T03:17:25.182Z,99.90
2023-04-20T03:19:52.276Z,99.90
2023-04-20T03:22:19.376Z,99.90
2023-04-20T03:24:50.288Z,99.90
2023-04-20T03:27:33.770Z,99.90
2023-04-20T03:30:07.674Z,99.90
2023-04-20T03:32:34.556Z,99.90
2023-04-20T03:35:01.962Z,99.90
2023-04-20T03:37:28.826Z,99.90
2023-04-20T03:39:55.872Z,99.90
2023-04-20T03:42:23.072Z,99.90
2023-04-20T03:44:50.178Z,99.90
2023-04-20T03:47:17.744Z,99.90
2023-04-20T03:49:45.092Z,99.90
2023-04-20T03:52:12.461Z,99.90
2023-04-20T03:54:39.327Z,99.90
2023-04-20T03:57:06.690Z,99.90
2023-04-20T03:59:34.033Z,99.90
2023-04-20T04:02:05.917Z,99.90
2023-04-20T04:04:32.936Z,99.90
2023-04-20T04:07:00.658Z,99.90
2023-04-20T04:09:27.847Z,99.90
2023-04-20T04:11:54.671Z,99.90
2023-04-20T04:14:22.379Z,99.90
2023-04-20T04:16:49.436Z,99.90
2023-04-20T04:19:17.207Z,99.90
2023-04-20T04:21:44.462Z,99.90
2023-04-20T04:24:13.062Z,99.90
2023-04-20T04:26:52.333Z,99.90
2023-04-20T04:29:20.370Z,99.90
2023-04-20T04:31:47.658Z,99.90
2023-04-20T04:34:18.561Z,99.90
2023-04-20T04:36:50.181Z,99.90
2023-04-20T04:39:22.417Z,99.90
2023-04-20T04:41:57.946Z,99.90
2023-04-20T04:44:34.286Z,99.90
2023-04-20T04:47:05.669Z,99.90
2023-04-20T04:49:33.032Z,99.90
2023-04-20T04:52:00.017Z,99.90
2023-04-20T04:54:27.531Z,99.90
2023-04-20T04:56:54.274Z,99.90
2023-04-20T04:59:20.993Z,99.90
2023-04-20T05:01:48.135Z,99.90
2023-04-20T05:04:15.138Z,99.90
2023-04-20T05:06:41.960Z,99.90
2023-04-20T05:09:08.813Z,99.90
2023-04-20T05:11:35.742Z,99.90
2023-04-20T05:14:03.696Z,99.90
2023-04-20T05:16:30.775Z,99.90
2023-04-20T05:18:57.723Z,99.90
2023-04-20T05:21:24.852Z,99.90
2023-04-20T05:23:52.203Z,99.90
2023-04-20T05:26:19.518Z,99.90
2023-04-20T05:28:46.848Z,99.90
2023-04-20T05:31:13.655Z,99.90
2023-04-20T05:33:40.722Z,99.90
2023-04-20T05:36:10.931Z,99.90
2023-04-20T05:38:37.840Z,99.90
2023-04-20T05:41:04.816Z,99.90
2023-04-20T05:43:31.573Z,99.90
2023-04-20T05:45:58.772Z,99.90
2023-04-20T05:48:29.796Z,99.90
2023-04-20T05:50:58.387Z,99.90
2023-04-20T05:53:25.513Z,99.90
2023-04-20T05:55:52.565Z,99.90
2023-04-20T05:58:19.755Z,99.90
2023-04-20T06:00:46.678Z,99.90
2023-04-20T06:03:13.748Z,99.90
2023-04-20T06:05:41.049Z,99.90
2023-04-20T06:08:08.245Z,99.90
2023-04-20T06:10:35.790Z,99.90
2023-04-20T06:13:02.510Z,99.90
2023-04-20T06:15:29.585Z,99.90
2023-04-20T06:17:57.205Z,99.90
2023-04-20T06:20:24.786Z,99.90
2023-04-20T06:22:51.511Z,99.90
2023-04-20T06:25:18.279Z,99.90
2023-04-20T06:27:45.476Z,99.90
2023-04-20T06:30:12.685Z,99.90
2023-04-20T06:32:39.725Z,99.90
2023-04-20T06:35:07.277Z,99.90
2023-04-20T06:37:35.459Z,99.90
2023-04-20T06:40:05.529Z,99.90
2023-04-20T06:42:32.243Z,99.90
2023-04-20T06:44:59.421Z,99.90
2023-04-20T06:47:33.749Z,99.90
2023-04-20T06:50:01.468Z,99.90
2023-04-20T06:52:28.622Z,99.90
2023-04-20T06:54:56.053Z,99.90
2023-04-20T06:57:23.212Z,99.90
2023-04-20T06:59:50.095Z,99.90
2023-04-20T07:02:17.202Z,99.90
2023-04-20T07:04:44.081Z,99.90
2023-04-20T07:07:11.949Z,99.90
2023-04-20T07:09:39.412Z,99.90
2023-04-20T07:12:06.309Z,99.90
2023-04-20T07:14:33.118Z,99.90
2023-04-20T07:16:59.889Z,99.90
2023-04-20T07:19:26.577Z,99.90
2023-04-20T07:21:53.697Z,99.90
2023-04-20T07:24:20.642Z,99.90
2023-04-20T07:26:48.019Z,99.90
2023-04-20T07:29:15.335Z,99.90
2023-04-20T07:31:42.247Z,99.90
2023-04-20T07:34:09.076Z,99.90
2023-04-20T07:36:36.070Z,99.90
2023-04-20T07:39:03.112Z,99.90
2023-04-20T07:41:29.857Z,99.90
2023-04-20T07:43:56.560Z,99.90
2023-04-20T07:46:23.430Z,99.90
2023-04-20T07:48:50.585Z,99.90
2023-04-20T07:51:17.520Z,99.90
2023-04-20T07:53:44.459Z,99.90
2023-04-20T07:56:11.479Z,99.90
2023-04-20T07:58:40.444Z,99.90
2023-04-20T08:01:07.813Z,99.90
2023-04-20T08:03:35.587Z,99.90
2023-04-20T08:06:03.563Z,99.90
2023-04-20T08:08:31.080Z,99.90
2023-04-20T08:10:58.688Z,99.90
2023-04-20T08:13:26.047Z,99.90
2023-04-20T08:15:53.245Z,99.90
2023-04-20T08:18:21.393Z,99.90
2023-04-20T08:20:48.318Z,99.90
2023-04-20T08:23:15.105Z,99.90
2023-04-20T08:25:41.955Z,99.90
2023-04-20T08:28:11.984Z,99.90
2023-04-20T08:30:42.360Z,99.90
2023-04-20T08:33:09.201Z,99.90
2023-04-20T08:35:36.435Z,99.90
2023-04-20T08:38:03.445Z,99.90
2023-04-20T08:40:31.961Z,99.90
2023-04-20T08:43:01.871Z,99.90
2023-04-20T08:45:29.572Z,99.90
2023-04-20T08:47:58.408Z,99.90
2023-04-20T08:50:25.141Z,99.90
2023-04-20T08:52:51.907Z,99.90
2023-04-20T08:55:18.822Z,99.90
2023-04-20T08:57:47.298Z,99.90
2023-04-20T09:00:16.049Z,99.90
2023-04-20T09:02:50.827Z,99.90
2023-04-20T09:05:26.758Z,99.90
2023-04-20T09:07:58.111Z,99.90
2023-04-20T09:10:25.596Z,99.90
2023-04-20T09:12:52.972Z,99.90
2023-04-20T09:15:30.377Z,99.90
2023-04-20T09:17:57.609Z,99.90
2023-04-20T09:20:32.253Z,99.90
2023-04-20T09:23:10.848Z,99.90
2023-04-20T09:25:37.738Z,99.90
2023-04-20T09:28:04.879Z,99.90
2023-04-20T09:30:39.571Z,99.90
2023-04-20T09:33:08.394Z,99.90
2023-04-20T09:35:36.414Z,99.90
2023-04-20T09:38:04.122Z,99.90
2023-04-20T09:40:30.945Z,99.90
2023-04-20T09:43:01.101Z,99.90
2023-04-20T09:45:28.869Z,99.90
2023-04-20T09:47:56.174Z,99.90
2023-04-20T09:50:29.038Z,99.90
2023-04-20T09:52:59.072Z,99.90
2023-04-20T09:55:26.588Z,99.90
2023-04-20T09:57:54.555Z,99.90
2023-04-20T10:00:27.217Z,99.90
2023-04-20T10:02:58.069Z,99.90
2023-04-20T10:05:37.229Z,99.90
2023-04-20T10:08:04.275Z,99.90
2023-04-20T10:10:31.151Z,99.90
2023-04-20T10:13:03.261Z,99.90
2023-04-20T10:15:37.609Z,99.90
2023-04-20T10:18:22.253Z,99.90
2023-04-20T10:20:49.694Z,99.90
2023-04-20T10:23:18.547Z,99.90
2023-04-20T10:26:02.287Z,99.90
2023-04-20T10:28:39.828Z,99.90
2023-04-20T10:31:17.233Z,99.90
2023-04-20T10:33:51.671Z,99.90
2023-04-20T10:36:32.396Z,99.90
2023-04-20T10:39:03.279Z,99.90
2023-04-20T10:41:30.048Z,99.90
2023-04-20T10:44:09.340Z,99.90
2023-04-20T10:46:38.930Z,99.90
2023-04-20T10:49:05.665Z,99.90
2023-04-20T10:51:35.770Z,99.90
2023-04-20T10:54:05.897Z,99.90
2023-04-20T10:56:42.890Z,99.90
2023-04-20T10:59:11.283Z,99.90
2023-04-20T11:01:38.698Z,99.90
2023-04-20T11:04:05.624Z,99.90
2023-04-20T11:06:32.735Z,99.90
2023-04-20T11:08:59.502Z,99.90
2023-04-20T11:11:30.220Z,99.90
2023-04-20T11:14:10.572Z,99.90
2023-04-20T11:16:49.718Z,99.90
2023-04-20T11:19:30.527Z,99.90
2023-04-20T11:21:57.943Z,99.90
2023-04-20T11:24:25.930Z,99.90
2023-04-20T11:26:54.579Z,99.90
2023-04-20T11:29:40.008Z,99.90
2023-04-20T11:32:10.525Z,99.90
2023-04-20T11:34:38.575Z,99.90
2023-04-20T11:37:10.751Z,99.90
2023-04-20T11:39:38.891Z,99.90
2023-04-20T11:42:06.206Z,99.90
2023-04-20T11:44:34.147Z,99.90
2023-04-20T11:47:01.860Z,99.90
2023-04-20T11:49:29.286Z,99.90
2023-04-20T11:51:56.465Z,99.90
2023-04-20T11:54:24.316Z,99.90
2023-04-20T11:56:51.470Z,99.90
2023-04-20T11:59:20.528Z,99.90
2023-04-20T12:01:48.471Z,99.90
2023-04-20T12:04:16.393Z,99.90
2023-04-20T12:06:44.073Z,99.90
2023-04-20T12:09:10.925Z,99.90
2023-04-20T12:11:37.934Z,99.90
2023-04-20T12:14:05.327Z,99.90
2023-04-20T12:16:32.474Z,99.90
2023-04-20T12:18:59.290Z,99.90
2023-04-20T12:21:27.374Z,99.90
2023-04-20T12:23:55.033Z,99.90
2023-04-20T12:26:27.066Z,99.90
2023-04-20T12:29:02.372Z,99.90
2023-04-20T12:31:29.409Z,99.90
2023-04-20T12:33:56.495Z,99.90
2023-04-20T12:36:23.213Z,99.90
2023-04-20T12:38:53.944Z,99.90
2023-04-20T12:41:23.231Z,99.90
2023-04-20T12:43:51.242Z,99.90
2023-04-20T12:46:18.082Z,99.90
2023-04-20T12:48:46.190Z,99.90
2023-04-20T12:51:13.669Z,99.90
2023-04-20T12:53:40.591Z,99.90
2023-04-20T12:56:07.710Z,99.90
2023-04-20T12:58:34.645Z,99.90
2023-04-20T13:01:02.726Z,99.90
2023-04-20T13:03:29.705Z,99.90
2023-04-20T13:05:56.585Z,99.90
2023-04-20T13:08:23.355Z,99.90
2023-04-20T13:10:50.413Z,99.90
2023-04-20T13:13:17.410Z,99.90
2023-04-20T13:15:44.234Z,99.90
2023-04-20T13:18:11.248Z,99.90
2023-04-20T13:20:38.006Z,99.90
2023-04-20T13:23:05.806Z,99.90
2023-04-20T13:25:33.357Z,99.90
2023-04-20T13:28:01.345Z,99.90
2023-04-20T13:30:28.597Z,99.90
2023-04-20T13:32:55.732Z,99.90
2023-04-20T13:35:22.937Z,99.90
2023-04-20T13:37:49.661Z,99.90
2023-04-20T13:40:17.044Z,99.90
2023-04-20T13:42:43.882Z,99.90
2023-04-20T13:45:10.893Z,99.90
2023-04-20T13:47:38.902Z,99.90
2023-04-20T13:50:07.147Z,99.90
2023-04-20T13:52:33.967Z,99.90
2023-04-20T13:55:00.762Z,99.90
2023-04-20T13:57:27.495Z,99.90
2023-04-20T13:59:54.228Z,99.90
2023-04-20T14:02:22.972Z,99.90
2023-04-20T14:04:49.936Z,99.90
2023-04-20T14:07:18.237Z,99.90
2023-04-20T14:09:44.983Z,99.90
2023-04-20T14:12:12.588Z,99.90
2023-04-20T14:14:39.890Z,99.90
2023-04-20T14:17:06.667Z,99.90
2023-04-20T14:19:33.667Z,99.90
2023-04-20T14:22:00.649Z,99.90
2023-04-20T14:24:27.674Z,99.90
2023-04-20T14:26:54.532Z,99.90
2023-04-20T14:29:21.448Z,99.90
2023-04-20T14:31:48.846Z,99.90
2023-04-20T14:34:16.503Z,99.90
2023-04-20T14:36:43.878Z,99.90
2023-04-20T14:39:10.867Z,99.90
2023-04-20T14:41:37.530Z,99.90
2023-04-20T14:44:05.160Z,99.90
2023-04-20T14:46:31.907Z,99.90
2023-04-20T14:48:59.262Z,99.90
2023-04-20T14:51:27.295Z,99.90
2023-04-20T14:53:54.689Z,99.90
2023-04-20T14:56:21.600Z,99.90
2023-04-20T14:58:48.438Z,99.90
2023-04-20T15:01:15.643Z,99.90
2023-04-20T15:03:43.177Z,99.90
2023-04-20T15:06:11.453Z,99.90
2023-04-20T15:08:43.117Z,99.90
2023-04-20T15:11:11.145Z,99.90
2023-04-20T15:13:41.078Z,99.90
2023-04-20T15:16:08.677Z,99.90
2023-04-20T15:18:35.840Z,99.90
2023-04-20T15:21:03.115Z,99.90
2023-04-20T15:23:30.203Z,99.90
2023-04-20T15:25:57.858Z,99.90
2023-04-20T15:28:25.487Z,99.90
2023-04-20T15:30:52.444Z,99.90
2023-04-20T15:33:19.258Z,99.90
2023-04-20T15:35:46.654Z,99.90
2023-04-20T15:38:13.970Z,99.90
2023-04-20T15:40:41.510Z,99.90
2023-04-20T15:43:08.416Z,99.90
2023-04-20T15:45:36.001Z,99.90
2023-04-20T15:48:03.640Z,99.90
2023-04-20T15:50:30.712Z,99.90
2023-04-20T15:52:57.745Z,99.90
2023-04-20T15:55:24.910Z,99.90
2023-04-20T15:57:56.975Z,99.90
2023-04-20T16:00:24.590Z,99.90
2023-04-20T16:02:53.519Z,99.90
2023-04-20T16:05:21.831Z,99.90
2023-04-20T16:07:48.832Z,99.90
2023-04-20T16:10:15.519Z,99.90
2023-04-20T16:12:42.225Z,99.90
2023-04-20T16:15:09.852Z,99.90
2023-04-20T16:17:37.221Z,99.90
2023-04-20T16:20:05.272Z,99.90
2023-04-20T16:22:33.049Z,99.90
2023-04-20T16:25:01.247Z,99.90
2023-04-20T16:27:27.993Z,99.90
2023-04-20T16:29:55.472Z,99.90
2023-04-20T16:32:22.991Z,99.90
2023-04-20T16:34:50.488Z,99.90
2023-04-20T16:37:17.628Z,99.90
2023-04-20T16:39:45.091Z,99.90
2023-04-20T16:42:12.081Z,99.90
2023-04-20T16:44:41.849Z,99.90
2023-04-20T16:47:08.849Z,99.90
2023-04-20T16:49:35.806Z,99.90
2023-04-20T16:52:02.645Z,99.90
2023-04-20T16:54:29.467Z,99.90
2023-04-20T16:56:57.334Z,99.90
2023-04-20T16:59:24.679Z,99.90
2023-04-20T17:01:52.942Z,99.90
2023-04-20T17:04:20.082Z,99.90
2023-04-20T17:06:48.817Z,99.90
2023-04-20T17:09:16.773Z,99.90
2023-04-20T17:11:44.061Z,99.90
2023-04-20T17:14:11.009Z,99.90
2023-04-20T17:16:39.644Z,99.90
2023-04-20T17:19:09.729Z,99.90
2023-04-20T17:21:36.778Z,99.90
2023-04-20T17:24:04.110Z,99.90
2023-04-20T17:26:31.311Z,99.90
2023-04-20T17:28:59.574Z,99.90
2023-04-20T17:31:26.544Z,99.90
2023-04-20T17:33:53.939Z,99.90
2023-04-20T17:36:20.826Z,99.90
2023-04-20T17:38:47.947Z,99.90
2023-04-20T17:41:14.661Z,99.90
2023-04-20T17:43:42.008Z,99.90
2023-04-20T17:46:09.238Z,99.90
2023-04-20T17:48:35.996Z,99.90
2023-04-20T17:51:02.733Z,99.90
2023-04-20T17:53:30.158Z,99.90
2023-04-20T17:55:57.101Z,99.90
2023-04-20T17:58:25.244Z,99.90
2023-04-20T18:00:52.558Z,99.90
2023-04-20T18:03:20.489Z,99.90
2023-04-20T18:05:48.143Z,99.90
2023-04-20T18:08:17.901Z,99.90
2023-04-20T18:10:45.244Z,99.90
2023-04-20T18:13:12.115Z,99.90
2023-04-20T18:15:39.097Z,99.90
2023-04-20T18:18:05.870Z,99.90
2023-04-20T18:20:33.089Z,99.90
2023-04-20T18:22:59.798Z,99.90
2023-04-20T18:25:26.979Z,99.90
2023-04-20T18:27:53.772Z,99.90
2023-04-20T18:30:21.729Z,99.90
2023-04-20T18:32:49.222Z,99.90
2023-04-20T18:35:16.491Z,99.90
2023-04-20T18:37:43.897Z,99.90
2023-04-20T18:40:13.064Z,99.90
2023-04-20T18:42:40.936Z,99.90
2023-04-20T18:45:08.573Z,99.90
2023-04-20T18:47:35.671Z,99.90
2023-04-20T18:50:03.084Z,99.90
2023-04-20T18:52:32.716Z,99.90
2023-04-20T18:54:59.801Z,99.90
2023-04-20T18:57:28.922Z,99.90
2023-04-20T18:59:56.577Z,99.90
2023-04-20T19:02:24.043Z,99.90
2023-04-20T19:04:51.086Z,99.90
2023-04-20T19:07:18.547Z,99.90
2023-04-20T19:09:45.310Z,99.90
2023-04-20T19:12:12.361Z,99.90
2023-04-20T19:14:39.645Z,99.90
2023-04-20T19:17:07.091Z,99.90
2023-04-20T19:19:34.323Z,99.90
2023-04-20T19:22:02.874Z,99.90
2023-04-20T19:24:32.122Z,99.90
2023-04-20T19:26:59.347Z,99.90
2023-04-20T19:29:26.822Z,99.90
2023-04-20T19:31:53.841Z,99.90
2023-04-20T19:34:21.280Z,99.90
2023-04-20T19:36:48.678Z,99.90
2023-04-20T19:39:15.510Z,99.90
2023-04-20T19:41:42.613Z,99.90
2023-04-20T19:44:12.045Z,99.90
2023-04-20T19:46:40.556Z,99.90
2023-04-20T19:49:07.506Z,99.90
2023-04-20T19:51:34.637Z,99.90
2023-04-20T19:54:03.799Z,99.90
2023-04-20T19:56:31.287Z,99.90
2023-04-20T19:58:58.512Z,99.90
2023-04-20T20:01:25.441Z,99.90
2023-04-20T20:03:52.519Z,99.90
2023-04-20T20:06:19.576Z,99.90
2023-04-20T20:08:46.753Z,99.90
2023-04-20T20:11:13.794Z,99.90
2023-04-20T20:13:40.934Z,99.90
2023-04-20T20:16:10.165Z,99.90
2023-04-20T20:18:37.288Z,99.90
2023-04-20T20:21:04.577Z,99.90
2023-04-20T20:23:31.352Z,99.90
2023-04-20T20:25:58.082Z,99.90
2023-04-20T20:28:25.153Z,99.90
2023-04-20T20:30:51.925Z,99.90
2023-04-20T20:33:18.905Z,99.90
2023-04-20T20:35:45.660Z,99.90
2023-04-20T20:38:12.889Z,99.90
2023-04-20T20:40:40.383Z,99.90
2023-04-20T20:43:07.545Z,99.90
2023-04-20T20:45:34.907Z,99.90
2023-04-20T20:48:02.140Z,99.90
2023-04-20T20:50:29.513Z,99.90
2023-04-20T20:52:56.382Z,99.90
2023-04-20T20:55:24.353Z,99.90
2023-04-20T20:57:51.642Z,99.90
2023-04-20T21:00:18.805Z,99.90
2023-04-20T21:02:46.144Z,99.90
2023-04-20T21:05:13.587Z,99.90
2023-04-20T21:07:40.706Z,99.90
2023-04-20T21:10:09.006Z,99.90
2023-04-20T21:12:35.988Z,99.90
2023-04-20T21:15:03.004Z,99.90
2023-04-20T21:17:30.436Z,99.90
2023-04-20T21:19:57.785Z,99.90
2023-04-20T21:22:24.553Z,99.90
2023-04-20T21:24:51.549Z,99.90
2023-04-20T21:27:19.242Z,99.90
2023-04-20T21:29:46.373Z,99.90
2023-04-20T21:32:13.102Z,99.90
2023-04-20T21:34:40.474Z,99.90
2023-04-20T21:37:07.199Z,99.90
2023-04-20T21:39:34.270Z,99.90
2023-04-20T21:42:03.173Z,99.90
2023-04-20T21:44:30.061Z,99.90
2023-04-20T21:46:57.564Z,99.90
2023-04-20T21:49:24.472Z,99.90
2023-04-20T21:51:51.851Z,99.90
2023-04-20T21:54:18.641Z,99.90
2023-04-20T21:56:46.717Z,99.90
2023-04-20T21:59:14.689Z,99.90
2023-04-20T22:01:42.260Z,99.90
2023-04-20T22:04:09.816Z,99.90
2023-04-20T22:06:36.725Z,99.90
2023-04-20T22:09:04.711Z,99.90
2023-04-20T22:11:32.054Z,99.90
2023-04-20T22:13:59.305Z,99.90
2023-04-20T22:16:28.426Z,99.90
2023-04-20T22:18:55.651Z,99.90
2023-04-20T22:21:22.716Z,99.90
2023-04-20T22:23:49.638Z,99.90
2023-04-20T22:26:16.933Z,99.90
2023-04-20T22:28:44.277Z,99.90
2023-04-20T22:31:11.370Z,99.90
2023-04-20T22:33:38.366Z,99.90
2023-04-20T22:36:06.855Z,99.90
2023-04-20T22:38:36.893Z,99.90
2023-04-20T22:41:03.774Z,99.90
2023-04-20T22:43:30.716Z,99.90
2023-04-20T22:45:58.716Z,99.90
2023-04-20T22:48:26.113Z,99.90
2023-04-20T22:50:53.702Z,99.90
2023-04-20T22:53:21.557Z,99.90
2023-04-20T22:55:48.450Z,99.90
2023-04-20T22:58:15.395Z,99.90
2023-04-20T23:00:42.247Z,99.90
2023-04-20T23:03:09.352Z,99.90
2023-04-20T23:05:36.721Z,99.90
2023-04-20T23:08:03.875Z,99.90
2023-04-20T23:10:30.824Z,99.90
2023-04-20T23:12:57.834Z,99.90
2023-04-20T23:15:24.669Z,99.90
2023-04-20T23:17:52.683Z,99.90
2023-04-20T23:20:19.799Z,99.90
2023-04-20T23:22:46.976Z,99.90
2023-04-20T23:25:14.294Z,99.90
2023-04-20T23:27:41.211Z,99.90
2023-04-20T23:30:10.397Z,99.90
2023-04-20T23:32:38.163Z,99.90
2023-04-20T23:35:06.487Z,99.90
2023-04-20T23:37:33.515Z,99.90
2023-04-20T23:40:02.891Z,99.90
2023-04-20T23:42:30.137Z,99.90
2023-04-20T23:44:58.615Z,99.90
2023-04-20T23:47:26.053Z,99.90
2023-04-20T23:49:53.025Z,99.90
2023-04-20T23:52:19.733Z,99.90
2023-04-20T23:54:47.341Z,99.90
2023-04-20T23:57:14.112Z,99.90
2023-04-20T23:59:41.293Z,99.90
